Time;durP1;ratioP1;P1;durP2;ratioP2;P2;SDS_P1;SDS_P2;PMS_P1;PMS_P2;Temp;Humidity;BMP_temperature;BMP_pressure;BME280_temperature;BME280_humidity;BME280_pressure;Samples;Min_cycle;Max_cycle;Signal;HPM_P1;HPM_P2
2021/07/31 00:01:38;;;;;;;6.18;2.80;;;17.50;87.60;;;;;;5014621;28;20022;-85
2021/07/31 00:04:07;;;;;;;7.50;2.72;;;17.50;88.00;;;;;;4995618;28;20387;-85
2021/07/31 00:06:33;;;;;;;7.03;2.13;;;17.40;88.80;;;;;;5011001;28;20391;-85
2021/07/31 00:08:59;;;;;;;8.35;2.42;;;17.40;88.30;;;;;;5014547;28;20037;-85
2021/07/31 00:11:25;;;;;;;5.65;2.20;;;17.40;89.00;;;;;;5015994;28;20047;-85
2021/07/31 00:13:51;;;;;;;8.85;2.72;;;17.40;88.60;;;;;;5007835;28;20093;-85
2021/07/31 00:16:16;;;;;;;10.00;2.90;;;17.40;88.70;;;;;;4994968;28;20037;-86
2021/07/31 00:18:42;;;;;;;9.50;2.70;;;17.40;88.90;;;;;;5003191;28;20112;-85
2021/07/31 00:21:08;;;;;;;7.95;2.20;;;17.40;89.10;;;;;;5016747;28;20176;-86
2021/07/31 00:23:34;;;;;;;8.02;2.22;;;17.40;89.30;;;;;;5012816;28;20014;-87
2021/07/31 00:25:59;;;;;;;6.95;2.83;;;17.40;89.30;;;;;;4997896;28;20471;-85
2021/07/31 00:28:25;;;;;;;8.50;2.33;;;17.40;89.60;;;;;;5014207;28;20037;-85
2021/07/31 00:30:51;;;;;;;7.20;2.63;;;17.40;89.70;;;;;;5013990;28;20544;-84
2021/07/31 00:33:17;;;;;;;6.35;1.85;;;17.40;89.70;;;;;;4998072;28;20457;-85
2021/07/31 00:35:42;;;;;;;6.70;2.42;;;17.40;89.80;;;;;;5014239;28;20025;-85
2021/07/31 00:38:08;;;;;;;8.57;2.47;;;17.40;90.00;;;;;;5014100;28;20026;-86
2021/07/31 00:40:35;;;;;;;8.57;2.03;;;17.40;90.10;;;;;;5014255;28;20542;-86
2021/07/31 00:43:07;;;;;;;8.48;2.25;;;17.50;90.00;;;;;;5013906;28;20056;-86
2021/07/31 00:45:33;;;;;;;10.02;3.00;;;17.50;90.10;;;;;;5014359;28;20068;-86
2021/07/31 00:48:00;;;;;;;6.90;2.40;;;17.50;90.10;;;;;;4995066;28;20030;-86
2021/07/31 00:50:27;;;;;;;8.02;2.40;;;17.50;90.10;;;;;;5014401;28;20380;-86
2021/07/31 00:52:55;;;;;;;8.15;2.40;;;17.50;90.10;;;;;;5032404;28;20017;-85
2021/07/31 00:55:22;;;;;;;10.75;3.53;;;17.50;90.20;;;;;;4997930;28;20033;-86
2021/07/31 00:57:49;;;;;;;10.80;2.80;;;17.50;90.20;;;;;;5011655;28;20460;-85
2021/07/31 01:00:15;;;;;;;9.50;2.53;;;17.50;90.30;;;;;;5017653;28;20550;-85
2021/07/31 01:02:41;;;;;;;6.90;2.53;;;17.50;90.60;;;;;;5001144;28;20116;-85
2021/07/31 01:05:07;;;;;;;7.65;2.42;;;17.50;90.50;;;;;;5001053;28;20029;-85
2021/07/31 01:07:35;;;;;;;11.25;2.97;;;17.50;90.50;;;;;;5017490;28;20029;-85
2021/07/31 01:10:02;;;;;;;11.25;3.10;;;17.50;90.50;;;;;;5017135;28;20391;-86
2021/07/31 01:12:28;;;;;;;10.52;2.80;;;17.50;90.50;;;;;;4997849;28;20029;-86
2021/07/31 01:14:53;;;;;;;9.35;2.80;;;17.50;90.50;;;;;;5003348;28;20072;-86
2021/07/31 01:17:19;;;;;;;8.75;2.60;;;17.50;90.60;;;;;;5000698;28;20053;-85
2021/07/31 01:19:45;;;;;;;9.65;2.95;;;17.50;90.60;;;;;;5016944;28;20025;-85
2021/07/31 01:22:11;;;;;;;8.50;2.65;;;17.50;90.70;;;;;;5017214;28;20049;-86
2021/07/31 01:24:36;;;;;;;11.98;3.33;;;17.50;90.70;;;;;;5007285;28;20034;-86
2021/07/31 01:27:03;;;;;;;7.45;2.85;;;17.50;90.70;;;;;;4998075;28;20040;-85
2021/07/31 01:29:29;;;;;;;5.50;2.92;;;17.50;90.70;;;;;;5005209;28;20030;-85
2021/07/31 01:31:54;;;;;;;8.48;2.92;;;17.50;90.80;;;;;;5003083;28;20099;-86
2021/07/31 01:34:20;;;;;;;9.27;2.88;;;17.50;90.90;;;;;;5000717;28;20037;-86
2021/07/31 01:36:45;;;;;;;7.72;2.70;;;17.40;90.90;;;;;;5016922;28;20022;-85
2021/07/31 01:39:11;;;;;;;12.10;3.47;;;17.50;91.10;;;;;;5020499;28;20028;-84
2021/07/31 01:41:37;;;;;;;10.57;3.00;;;17.40;91.20;;;;;;5015762;28;20105;-85
2021/07/31 01:44:03;;;;;;;8.23;3.25;;;17.40;91.30;;;;;;5000953;28;20497;-86
2021/07/31 01:46:28;;;;;;;10.80;3.03;;;17.40;91.90;;;;;;4998745;28;20510;-86
2021/07/31 01:48:54;;;;;;;10.05;3.00;;;17.30;91.90;;;;;;5013789;28;20025;-86
2021/07/31 01:51:20;;;;;;;11.63;3.20;;;17.30;92.10;;;;;;5019478;28;20034;-85
2021/07/31 01:53:45;;;;;;;9.70;3.33;;;17.20;92.10;;;;;;5019481;28;20496;-85
2021/07/31 01:56:12;;;;;;;10.73;3.63;;;17.20;92.30;;;;;;4986613;28;20026;-85
2021/07/31 01:58:37;;;;;;;12.00;3.80;;;17.20;92.30;;;;;;5018917;28;20076;-85
2021/07/31 02:01:03;;;;;;;10.00;3.53;;;17.20;92.40;;;;;;5019688;28;20013;-85
2021/07/31 02:03:29;;;;;;;10.75;4.03;;;17.10;92.40;;;;;;5017755;28;20503;-86
2021/07/31 02:05:55;;;;;;;8.98;3.65;;;17.10;92.50;;;;;;5017673;28;20021;-86
2021/07/31 02:08:21;;;;;;;6.57;3.22;;;17.10;92.70;;;;;;5016270;28;20017;-86
2021/07/31 02:10:47;;;;;;;9.93;3.63;;;17.10;92.70;;;;;;5016057;28;20025;-85
2021/07/31 02:13:13;;;;;;;11.13;3.58;;;17.10;92.70;;;;;;5016185;28;20080;-86
2021/07/31 02:15:43;;;;;;;9.88;3.30;;;17.10;92.70;;;;;;5000119;28;20037;-85
2021/07/31 02:18:09;;;;;;;9.30;3.85;;;17.00;92.50;;;;;;4999915;28;20103;-86
2021/07/31 02:20:35;;;;;;;7.93;3.53;;;17.00;92.50;;;;;;5016002;28;20049;-86
2021/07/31 02:23:00;;;;;;;10.65;3.45;;;17.00;92.60;;;;;;5029257;28;20137;-85
2021/07/31 02:25:26;;;;;;;9.55;3.33;;;17.00;92.50;;;;;;4999862;28;20026;-85
2021/07/31 02:27:52;;;;;;;12.80;4.03;;;17.00;92.60;;;;;;4999620;28;20120;-85
2021/07/31 02:30:17;;;;;;;13.60;3.90;;;17.00;92.60;;;;;;4986235;28;20040;-86
2021/07/31 02:32:43;;;;;;;9.95;3.38;;;17.00;92.40;;;;;;5017660;28;20029;-87
2021/07/31 02:35:10;;;;;;;8.88;3.67;;;17.00;92.40;;;;;;5020397;28;20116;-86
2021/07/31 02:37:37;;;;;;;11.27;3.65;;;17.00;92.40;;;;;;5022296;28;20101;-86
2021/07/31 02:40:04;;;;;;;12.60;3.60;;;17.10;92.30;;;;;;5006013;28;20509;-85
2021/07/31 02:42:30;;;;;;;8.43;3.33;;;17.10;92.20;;;;;;5023017;28;20022;-85
2021/07/31 02:44:55;;;;;;;11.73;3.80;;;17.10;92.30;;;;;;5006407;28;20226;-85
2021/07/31 02:47:21;;;;;;;10.57;3.35;;;17.00;92.20;;;;;;4990093;28;20115;-85
2021/07/31 02:49:47;;;;;;;8.93;4.00;;;17.10;92.30;;;;;;5005731;28;20566;-86
2021/07/31 02:52:12;;;;;;;11.40;3.40;;;17.10;92.10;;;;;;5005472;28;20120;-86
2021/07/31 02:54:38;;;;;;;12.90;4.25;;;17.10;92.10;;;;;;5005833;28;20129;-85
2021/07/31 02:57:04;;;;;;;13.98;4.22;;;17.10;92.10;;;;;;5022967;28;20530;-87
2021/07/31 02:59:29;;;;;;;12.55;3.92;;;17.10;92.00;;;;;;5028848;28;20021;-85
2021/07/31 03:01:55;;;;;;;9.45;3.95;;;17.10;92.30;;;;;;5013976;28;20029;-84
2021/07/31 03:04:20;;;;;;;10.57;3.78;;;17.10;92.00;;;;;;5026881;28;20033;-85
2021/07/31 03:06:46;;;;;;;11.75;3.65;;;17.10;92.10;;;;;;5032504;28;20049;-86
2021/07/31 03:09:12;;;;;;;9.57;3.90;;;17.10;92.10;;;;;;5022906;28;20053;-86
2021/07/31 03:11:38;;;;;;;10.73;3.60;;;17.10;92.10;;;;;;4985370;28;20088;-86
2021/07/31 03:14:03;;;;;;;9.18;3.72;;;17.20;92.20;;;;;;5024080;28;20506;-86
2021/07/31 03:16:29;;;;;;;8.98;3.50;;;17.10;92.10;;;;;;4980136;28;20064;-87
2021/07/31 03:18:55;;;;;;;9.95;3.80;;;17.10;92.50;;;;;;4998675;28;20025;-87
2021/07/31 03:21:20;;;;;;;9.73;3.53;;;17.10;92.30;;;;;;4994968;28;20407;-86
2021/07/31 03:23:46;;;;;;;9.40;3.75;;;17.10;92.60;;;;;;4983732;28;20037;-86
2021/07/31 03:26:11;;;;;;;9.88;4.00;;;17.10;92.70;;;;;;4963412;28;20037;-87
2021/07/31 03:28:37;;;;;;;9.38;4.13;;;17.00;92.90;;;;;;4995171;28;20088;-87
2021/07/31 03:31:03;;;;;;;10.00;4.43;;;17.00;93.20;;;;;;4978757;28;20111;-86
2021/07/31 03:33:28;;;;;;;8.95;3.90;;;16.90;93.60;;;;;;4995000;28;20041;-87
2021/07/31 03:35:54;;;;;;;9.63;4.57;;;16.90;94.20;;;;;;5011417;28;20030;-86
2021/07/31 03:38:21;;;;;;;10.68;4.60;;;16.80;94.40;;;;;;5011081;28;20498;-85
2021/07/31 03:40:47;;;;;;;12.10;5.10;;;16.70;95.00;;;;;;5011256;28;20029;-86
2021/07/31 03:43:13;;;;;;;13.27;5.60;;;16.60;95.00;;;;;;4978591;28;20030;-85
2021/07/31 03:45:39;;;;;;;10.57;5.30;;;16.60;95.30;;;;;;4986430;28;20053;-86
2021/07/31 03:48:05;;;;;;;12.82;5.32;;;16.60;95.60;;;;;;4989116;28;20412;-86
2021/07/31 03:50:31;;;;;;;11.20;4.93;;;16.50;95.50;;;;;;4982269;28;20483;-86
2021/07/31 03:52:56;;;;;;;11.02;4.88;;;16.50;95.60;;;;;;4982404;28;20045;-86
2021/07/31 03:55:23;;;;;;;9.25;4.60;;;16.50;95.60;;;;;;4993910;28;20379;-86
2021/07/31 03:57:49;;;;;;;10.20;4.85;;;16.60;95.60;;;;;;4994983;28;20080;-86
2021/07/31 04:00:15;;;;;;;13.88;5.93;;;16.50;95.90;;;;;;4975688;28;20034;-86
2021/07/31 04:02:41;;;;;;;8.75;4.88;;;16.60;96.00;;;;;;4984370;28;20028;-86
2021/07/31 04:05:07;;;;;;;9.75;5.40;;;16.50;95.90;;;;;;4977895;28;20026;-86
2021/07/31 04:07:33;;;;;;;10.48;5.30;;;16.60;96.00;;;;;;4959533;28;20457;-86
2021/07/31 04:09:59;;;;;;;8.25;5.15;;;16.60;96.00;;;;;;4959482;28;20030;-86
2021/07/31 04:12:24;;;;;;;9.48;5.88;;;16.50;96.00;;;;;;5007147;28;20030;-86
2021/07/31 04:14:50;;;;;;;8.73;5.13;;;16.50;96.20;;;;;;4989982;28;20037;-87
2021/07/31 04:17:16;;;;;;;11.07;5.90;;;16.50;96.20;;;;;;4978081;28;20069;-86
2021/07/31 04:19:42;;;;;;;10.38;5.78;;;16.50;96.30;;;;;;4988508;28;20022;-87
2021/07/31 04:22:08;;;;;;;9.25;5.85;;;16.40;96.40;;;;;;5004172;22;20417;-84
2021/07/31 04:24:36;;;;;;;12.70;5.45;;;16.40;96.40;;;;;;4978321;28;20105;-84
2021/07/31 04:27:04;;;;;;;9.10;5.55;;;16.40;96.40;;;;;;4980781;28;20368;-83
2021/07/31 04:29:29;;;;;;;9.82;5.90;;;16.40;96.50;;;;;;4998433;28;20367;-83
2021/07/31 04:31:55;;;;;;;10.55;6.32;;;16.40;96.50;;;;;;4982091;28;20018;-83
2021/07/31 04:34:21;;;;;;;9.50;5.20;;;16.40;96.50;;;;;;4965771;28;20441;-84
2021/07/31 04:36:46;;;;;;;9.25;5.57;;;16.30;96.60;;;;;;4962660;28;20085;-83
2021/07/31 04:39:12;;;;;;;10.32;5.45;;;16.30;96.60;;;;;;4980328;28;20555;-84
2021/07/31 04:41:38;;;;;;;9.32;5.57;;;16.40;96.70;;;;;;4962459;28;20037;-84
2021/07/31 04:44:03;;;;;;;9.25;5.22;;;16.40;96.70;;;;;;4972108;28;20025;-84
2021/07/31 04:46:29;;;;;;;11.65;5.30;;;16.40;96.70;;;;;;4997977;28;20045;-84
2021/07/31 04:48:55;;;;;;;11.02;5.35;;;16.30;96.70;;;;;;4980837;28;20033;-84
2021/07/31 04:51:20;;;;;;;10.45;4.63;;;16.30;96.80;;;;;;4991437;28;20042;-84
2021/07/31 04:53:47;;;;;;;10.18;5.13;;;16.30;96.80;;;;;;4997915;28;20107;-84
2021/07/31 04:56:13;;;;;;;8.80;4.85;;;16.30;96.80;;;;;;4981567;28;20034;-84
2021/07/31 04:58:38;;;;;;;8.68;4.70;;;16.30;96.90;;;;;;4981584;28;20129;-84
2021/07/31 05:01:04;;;;;;;7.85;4.60;;;16.30;97.00;;;;;;4981621;28;20024;-84
2021/07/31 05:03:30;;;;;;;7.22;4.43;;;16.30;97.00;;;;;;4981614;28;20030;-84
2021/07/31 05:05:57;;;;;;;7.97;4.43;;;16.20;97.00;;;;;;4997705;28;20391;-84
2021/07/31 05:08:23;;;;;;;6.90;4.20;;;16.20;97.00;;;;;;4997944;28;20040;-84
2021/07/31 05:10:51;;;;;;;7.85;4.30;;;16.20;97.00;;;;;;4981436;28;20089;-84
2021/07/31 05:13:17;;;;;;;12.05;5.20;;;16.30;97.10;;;;;;4997907;28;20057;-84
2021/07/31 05:15:45;;;;;;;6.72;4.22;;;16.30;97.10;;;;;;4997556;28;20030;-84
2021/07/31 05:18:12;;;;;;;6.15;3.80;;;16.30;97.10;;;;;;5015826;28;20026;-84
2021/07/31 05:20:47;;;;;;;6.50;3.58;;;16.30;97.40;;;;;;4997202;28;20108;-84
2021/07/31 05:23:14;;;;;;;6.57;3.40;;;16.30;97.10;;;;;;4981617;28;21570;-85
2021/07/31 05:25:44;;;;;;;5.65;3.40;;;16.30;97.10;;;;;;4998054;28;20026;-83
2021/07/31 05:28:11;;;;;;;5.87;3.30;;;16.30;97.10;;;;;;4997772;28;20065;-84
2021/07/31 05:30:41;;;;;;;6.57;3.20;;;16.30;97.10;;;;;;4997923;28;20120;-84
2021/07/31 05:33:16;;;;;;;8.77;3.13;;;16.30;97.10;;;;;;4998268;28;20042;-83
2021/07/31 05:35:41;;;;;;;5.93;3.50;;;16.30;97.20;;;;;;4978961;28;20037;-84
2021/07/31 05:38:07;;;;;;;7.18;3.75;;;16.30;97.20;;;;;;4974947;28;20026;-84
2021/07/31 05:40:33;;;;;;;6.10;3.60;;;16.30;97.30;;;;;;4982136;28;20484;-84
2021/07/31 05:42:59;;;;;;;8.32;4.07;;;16.30;97.30;;;;;;4961855;28;20030;-84
2021/07/31 05:45:26;;;;;;;7.68;4.13;;;16.30;97.50;;;;;;4978339;28;20487;-84
2021/07/31 05:47:51;;;;;;;6.25;4.15;;;16.20;97.40;;;;;;4981255;28;20037;-84
2021/07/31 05:50:17;;;;;;;7.18;4.55;;;16.30;97.40;;;;;;4965364;28;20034;-84
2021/07/31 05:52:43;;;;;;;6.93;4.28;;;16.30;97.50;;;;;;4964985;28;20026;-84
2021/07/31 05:55:09;;;;;;;8.02;5.10;;;16.30;97.50;;;;;;4997315;28;20125;-84
2021/07/31 05:57:35;;;;;;;6.22;4.70;;;16.30;97.60;;;;;;4997199;28;20078;-84
2021/07/31 06:00:01;;;;;;;8.20;5.40;;;16.30;97.60;;;;;;4997377;28;20125;-84
2021/07/31 06:02:26;;;;;;;9.15;5.50;;;16.30;97.60;;;;;;4964109;28;20510;-84
2021/07/31 06:04:52;;;;;;;9.10;5.00;;;16.30;97.70;;;;;;4997134;28;20026;-84
2021/07/31 06:07:18;;;;;;;14.70;5.38;;;16.30;97.70;;;;;;4997329;28;20041;-83
2021/07/31 06:09:55;;;;;;;8.98;4.75;;;16.30;97.60;;;;;;4981210;28;20368;-83
2021/07/31 06:12:21;;;;;;;8.93;4.93;;;16.30;97.60;;;;;;4996522;28;20063;-84
2021/07/31 06:14:47;;;;;;;10.95;5.00;;;16.30;97.70;;;;;;4996441;28;20057;-84
2021/07/31 06:17:13;;;;;;;8.20;5.43;;;16.30;97.70;;;;;;4964554;28;20080;-84
2021/07/31 06:19:39;;;;;;;9.15;4.63;;;16.30;97.70;;;;;;4996404;28;20104;-84
2021/07/31 06:22:05;;;;;;;11.35;4.38;;;16.40;97.70;;;;;;4980135;28;20053;-83
2021/07/31 06:24:31;;;;;;;11.98;5.03;;;16.40;97.70;;;;;;4980111;28;20125;-84
2021/07/31 06:26:57;;;;;;;8.20;4.88;;;16.40;97.70;;;;;;4996494;28;20468;-84
2021/07/31 06:29:23;;;;;;;9.98;4.85;;;16.50;97.80;;;;;;4966592;28;20054;-84
2021/07/31 06:31:49;;;;;;;10.32;5.32;;;16.50;97.70;;;;;;4980097;28;20030;-83
2021/07/31 06:34:59;;;;;;;8.70;5.00;;;16.50;97.80;;;;;;4980057;28;20028;-84
2021/07/31 06:37:24;;;;;;;8.73;4.68;;;16.50;98.30;;;;;;5002999;28;20407;-84
2021/07/31 06:39:50;;;;;;;7.45;4.25;;;16.50;98.40;;;;;;4976304;28;20026;-84
2021/07/31 06:42:15;;;;;;;7.57;4.60;;;16.50;98.50;;;;;;4976471;28;20030;-83
2021/07/31 06:44:41;;;;;;;9.30;5.22;;;16.50;98.50;;;;;;4976330;28;20157;-83
2021/07/31 06:47:07;;;;;;;7.07;4.80;;;16.60;98.70;;;;;;4979474;28;20465;-82
2021/07/31 06:49:32;;;;;;;10.43;5.25;;;16.60;98.30;;;;;;4979562;28;20403;-82
2021/07/31 06:52:32;;;;;;;7.80;4.50;;;16.60;98.10;;;;;;4995657;28;20113;-82
2021/07/31 06:54:57;;;;;;;8.40;4.70;;;16.60;97.80;;;;;;4986123;28;20022;-82
2021/07/31 06:57:23;;;;;;;8.85;3.80;;;16.60;97.80;;;;;;4961273;28;20030;-81
2021/07/31 06:59:49;;;;;;;11.85;4.90;;;16.60;97.80;;;;;;4979504;28;20498;-81
2021/07/31 07:02:14;;;;;;;10.07;4.82;;;16.70;97.80;;;;;;4979379;28;20037;-82
2021/07/31 07:04:40;;;;;;;7.75;4.32;;;16.70;97.70;;;;;;4979659;28;20096;-81
2021/07/31 07:07:05;;;;;;;9.68;5.15;;;16.70;97.60;;;;;;4960082;28;20050;-81
2021/07/31 07:09:31;;;;;;;9.93;5.00;;;16.70;97.60;;;;;;4965401;28;20125;-81
2021/07/31 07:11:57;;;;;;;13.52;5.82;;;16.70;97.40;;;;;;4965075;28;20113;-82
2021/07/31 07:14:22;;;;;;;10.50;5.32;;;16.70;97.40;;;;;;4979117;28;20052;-82
2021/07/31 07:16:48;;;;;;;10.18;5.30;;;16.70;97.50;;;;;;4979083;28;20036;-82
2021/07/31 07:19:13;;;;;;;8.85;5.32;;;16.70;97.40;;;;;;4978951;28;20559;-82
2021/07/31 07:21:40;;;;;;;9.93;5.60;;;16.70;97.40;;;;;;4978634;28;20081;-82
2021/07/31 07:24:06;;;;;;;11.27;6.10;;;16.70;97.50;;;;;;4994970;28;20026;-82
2021/07/31 07:26:32;;;;;;;9.13;5.55;;;16.70;97.50;;;;;;4979037;28;20037;-82
2021/07/31 07:28:57;;;;;;;7.35;5.40;;;16.70;97.80;;;;;;4978668;28;20251;-81
2021/07/31 07:31:23;;;;;;;8.88;5.88;;;16.70;97.60;;;;;;4995049;28;20021;-81
2021/07/31 07:33:49;;;;;;;7.40;5.15;;;16.60;97.60;;;;;;4978985;28;20061;-81
2021/07/31 07:36:16;;;;;;;8.15;5.40;;;16.70;97.60;;;;;;4978595;28;20105;-81
2021/07/31 07:38:43;;;;;;;10.68;6.15;;;16.70;98.00;;;;;;4979306;28;20464;-82
2021/07/31 07:41:10;;;;;;;10.82;5.65;;;16.70;97.80;;;;;;4980968;28;20106;-82
2021/07/31 07:43:36;;;;;;;9.55;5.90;;;16.70;97.80;;;;;;4979139;28;20041;-82
2021/07/31 07:46:04;;;;;;;10.32;6.35;;;16.70;97.80;;;;;;4996256;28;20014;-82
2021/07/31 07:48:30;;;;;;;8.25;5.75;;;16.70;97.90;;;;;;5013322;28;20018;-81
2021/07/31 07:50:56;;;;;;;9.07;6.90;;;16.70;98.00;;;;;;4996454;28;20484;-82
2021/07/31 07:53:22;;;;;;;10.48;6.10;;;16.70;98.00;;;;;;4961275;28;20026;-82
2021/07/31 07:55:48;;;;;;;9.25;6.53;;;16.70;98.00;;;;;;4970766;28;20033;-83
2021/07/31 07:58:53;;;;;;;9.27;6.63;;;16.70;98.10;;;;;;4960961;28;20042;-81
2021/07/31 08:01:19;;;;;;;7.68;5.63;;;16.80;98.00;;;;;;4997415;28;20604;-82
2021/07/31 08:03:44;;;;;;;8.93;6.90;;;16.80;98.10;;;;;;4987200;28;20050;-82
2021/07/31 08:06:16;;;;;;;10.70;7.32;;;16.80;98.20;;;;;;4986522;28;20026;-82
2021/07/31 08:08:42;;;;;;;8.85;7.57;;;16.70;98.20;;;;;;4977041;28;20030;-83
2021/07/31 08:11:08;;;;;;;10.98;8.00;;;16.70;98.10;;;;;;4986135;28;20113;-82
2021/07/31 08:13:34;;;;;;;10.15;8.23;;;16.70;98.20;;;;;;5002948;28;20563;-82
2021/07/31 08:16:00;;;;;;;10.43;9.02;;;16.60;98.20;;;;;;4983435;28;20117;-82
2021/07/31 08:18:25;;;;;;;12.23;9.63;;;16.60;98.20;;;;;;4987591;28;20026;-82
2021/07/31 08:20:51;;;;;;;11.20;8.38;;;16.60;98.30;;;;;;4989007;28;20042;-82
2021/07/31 08:23:17;;;;;;;12.13;9.10;;;16.60;98.60;;;;;;5002071;28;20030;-82
2021/07/31 08:25:46;;;;;;;11.27;9.27;;;16.50;98.70;;;;;;4988807;28;20391;-82
2021/07/31 08:28:12;;;;;;;12.95;9.52;;;16.60;98.80;;;;;;4989313;28;20146;-82
2021/07/31 08:30:45;;;;;;;11.65;9.07;;;16.60;99.10;;;;;;5012435;28;20057;-82
2021/07/31 08:33:13;;;;;;;11.27;9.20;;;16.60;99.10;;;;;;4982090;28;20047;-82
2021/07/31 08:35:39;;;;;;;12.27;9.57;;;16.60;99.20;;;;;;4995319;28;20049;-82
2021/07/31 08:38:05;;;;;;;11.00;8.55;;;16.70;99.50;;;;;;4965388;28;20472;-82
2021/07/31 08:40:34;;;;;;;10.70;8.57;;;16.70;99.30;;;;;;4992916;28;20022;-82
2021/07/31 08:43:05;;;;;;;11.82;8.98;;;16.80;99.40;;;;;;5000935;28;20334;-83
2021/07/31 08:45:32;;;;;;;11.85;8.18;;;16.90;99.40;;;;;;4984468;28;20574;-82
2021/07/31 08:48:01;;;;;;;11.60;7.90;;;16.90;99.00;;;;;;5001197;28;20370;-83
2021/07/31 08:50:28;;;;;;;11.43;8.10;;;16.90;98.90;;;;;;4998548;28;20040;-83
2021/07/31 08:52:57;;;;;;;9.88;7.40;;;16.90;98.70;;;;;;4982835;28;20053;-83
2021/07/31 08:55:23;;;;;;;11.57;8.13;;;16.90;98.60;;;;;;5000628;28;20446;-83
2021/07/31 08:57:58;;;;;;;11.10;7.70;;;16.90;98.40;;;;;;4984569;28;20040;-83
2021/07/31 09:00:47;;;;;;;7.90;7.03;;;17.00;98.50;;;;;;4985497;28;20463;-83
2021/07/31 09:03:23;;;;;;;13.32;7.57;;;17.00;98.50;;;;;;5000785;28;20113;-83
2021/07/31 09:05:52;;;;;;;10.95;6.57;;;17.00;98.50;;;;;;4982521;28;20050;-83
2021/07/31 09:08:17;;;;;;;9.80;5.63;;;17.00;98.40;;;;;;4982550;28;20042;-84
2021/07/31 09:10:45;;;;;;;10.05;5.50;;;17.00;98.20;;;;;;4973205;28;20033;-83
2021/07/31 09:13:13;;;;;;;8.80;5.07;;;17.00;97.80;;;;;;5015424;28;20065;-83
2021/07/31 09:15:45;;;;;;;8.88;5.38;;;17.00;97.70;;;;;;4997821;28;20054;-84
2021/07/31 09:18:31;;;;;;;7.03;4.88;;;17.00;97.60;;;;;;4997596;28;20030;-83
2021/07/31 09:21:06;;;;;;;10.18;5.40;;;17.00;97.70;;;;;;4984866;28;20074;-83
2021/07/31 09:23:51;;;;;;;8.02;4.63;;;17.00;97.60;;;;;;4983522;28;20117;-83
2021/07/31 09:26:36;;;;;;;7.18;4.80;;;17.10;97.80;;;;;;4970993;28;20127;-82
2021/07/31 09:29:11;;;;;;;6.93;4.85;;;17.10;97.80;;;;;;4998319;28;20487;-84
2021/07/31 09:32:07;;;;;;;8.95;5.43;;;17.10;97.90;;;;;;4997379;28;20018;-83
2021/07/31 09:34:46;;;;;;;10.90;5.38;;;17.10;98.10;;;;;;4997268;28;20033;-84
2021/07/31 09:37:17;;;;;;;9.18;5.10;;;17.10;98.00;;;;;;4983586;28;20030;-84
2021/07/31 09:39:54;;;;;;;;;;;17.10;98.00;;;;;;4990471;28;20018;-83
2021/07/31 09:42:40;;;;;;;7.57;5.97;;;17.10;98.20;;;;;;4978737;28;19921;-83
2021/07/31 09:45:15;;;;;;;10.05;6.13;;;17.10;98.40;;;;;;4997268;28;20053;-83
2021/07/31 09:48:01;;;;;;;9.63;6.10;;;17.00;98.70;;;;;;4996894;28;20026;-84
2021/07/31 09:50:46;;;;;;;8.95;5.60;;;17.00;98.70;;;;;;5014684;28;20494;-84
2021/07/31 09:53:14;;;;;;;10.50;6.00;;;17.00;98.90;;;;;;4981322;28;20049;-84
2021/07/31 09:55:51;;;;;;;8.07;5.70;;;17.00;99.00;;;;;;4996912;28;20022;-84
2021/07/31 09:58:19;;;;;;;9.18;5.93;;;16.90;99.30;;;;;;4991358;28;20540;-84
2021/07/31 10:00:51;;;;;;;8.57;5.75;;;16.90;99.40;;;;;;4977547;28;20027;-84
2021/07/31 10:03:16;;;;;;;8.70;5.88;;;16.90;99.60;;;;;;4995746;28;20029;-83
2021/07/31 10:05:43;;;;;;;10.70;6.22;;;16.80;99.80;;;;;;4996748;28;20034;-83
2021/07/31 10:08:13;;;;;;;11.93;7.07;;;16.80;99.90;;;;;;4993467;28;20029;-84
2021/07/31 10:10:40;;;;;;;9.38;6.65;;;16.90;99.90;;;;;;4960964;28;20085;-83
2021/07/31 10:13:06;;;;;;;9.60;7.30;;;16.90;99.90;;;;;;4976152;28;20026;-83
2021/07/31 10:15:34;;;;;;;8.88;7.65;;;17.00;99.90;;;;;;4980490;28;20487;-83
2021/07/31 10:18:10;;;;;;;9.05;7.30;;;17.00;99.90;;;;;;4982836;28;20022;-84
2021/07/31 10:20:40;;;;;;;9.48;7.22;;;17.00;99.90;;;;;;5006350;23;20057;-89
2021/07/31 10:23:07;;;;;;;9.75;8.18;;;17.10;99.90;;;;;;5003019;28;20029;-88
2021/07/31 10:26:13;;;;;;;9.52;7.32;;;17.10;99.90;;;;;;5017993;28;20375;-89
2021/07/31 10:28:53;;;;;;;12.23;7.63;;;17.10;99.90;;;;;;5018237;28;20040;-88
2021/07/31 10:31:32;;;;;;;10.82;7.10;;;17.10;99.90;;;;;;5003297;28;20056;-89
2021/07/31 10:34:47;;;;;;;11.27;7.53;;;17.10;99.90;;;;;;5018816;28;20057;-89
2021/07/31 10:37:35;;;;;;;10.45;7.20;;;17.10;99.90;;;;;;4920139;29;20043;-89
2021/07/31 10:40:20;;;;;;;10.82;8.20;;;17.10;99.90;;;;;;4987068;28;20041;-88
2021/07/31 10:42:57;;;;;;;9.80;7.47;;;17.10;99.90;;;;;;5017686;28;20037;-90
2021/07/31 10:53:33;;;;;;;9.85;6.75;;;17.20;99.90;;;;;;4955989;28;20074;-88
2021/07/31 10:55:42;;;;;;;9.07;6.00;;;17.10;99.90;;;;;;5021867;28;20029;-88
2021/07/31 10:58:08;;;;;;;8.75;6.40;;;17.10;99.90;;;;;;5015950;28;20466;-89
2021/07/31 11:00:53;;;;;;;9.07;6.20;;;17.10;99.90;;;;;;5016377;28;20026;-88
2021/07/31 11:03:25;;;;;;;8.23;5.28;;;17.10;99.90;;;;;;5016851;28;20021;-88
2021/07/31 11:06:06;;;;;;;8.07;4.50;;;17.10;99.90;;;;;;5018042;28;20033;-89
2021/07/31 11:30:05;;;;;;;5.18;3.63;;;16.90;99.90;;;;;;4909050;29;20110;-89
2021/07/31 11:32:38;;;;;;;5.78;3.55;;;16.80;99.90;;;;;;4921760;29;20032;-89
2021/07/31 11:35:47;;;;;;;6.65;3.63;;;16.80;99.90;;;;;;4906774;29;20042;-89
2021/07/31 11:38:34;;;;;;;6.05;3.83;;;16.80;99.90;;;;;;4965785;28;20058;-90
2021/07/31 11:41:09;;;;;;;7.50;4.22;;;16.80;99.90;;;;;;4990277;28;20021;-87
2021/07/31 11:43:44;;;;;;;8.88;3.75;;;16.80;99.90;;;;;;4995496;28;20053;-89
2021/07/31 11:46:22;;;;;;;6.60;4.25;;;16.70;99.90;;;;;;5010788;28;20034;-87
2021/07/31 11:48:48;;;;;;;15.10;5.10;;;16.80;99.90;;;;;;5009771;28;20057;-87
2021/07/31 11:51:14;;;;;;;8.85;4.93;;;16.80;99.90;;;;;;4995746;28;20502;-87
2021/07/31 11:53:39;;;;;;;8.32;4.53;;;16.90;99.90;;;;;;4979553;28;20089;-87
2021/07/31 11:56:23;;;;;;;7.80;5.78;;;17.00;99.90;;;;;;4995980;28;20042;-89
2021/07/31 11:58:54;;;;;;;8.15;6.43;;;17.10;99.90;;;;;;5014546;28;20025;-88
2021/07/31 12:01:55;;;;;;;11.85;8.25;;;17.10;99.90;;;;;;4991720;28;20034;-85
2021/07/31 12:11:12;;;;;;;11.68;8.52;;;17.30;99.90;;;;;;4946153;28;20133;-85
2021/07/31 12:21:57;;;;;;;;;;;;;;;;;;;;;
2021/07/31 12:24:23;;;;;;;11.55;8.45;;;17.60;99.90;;;;;;4804136;29;20060;-86
2021/07/31 12:27:54;;;;;;;13.45;9.25;;;17.60;99.90;;;;;;4881490;29;20127;-86
2021/07/31 12:43:52;;;;;;;13.80;9.18;;;18.00;99.90;;;;;;4880145;29;19915;-86
2021/07/31 12:47:10;;;;;;;12.40;10.05;;;18.00;99.90;;;;;;4871937;28;20060;-88
2021/07/31 12:49:37;;;;;;;11.18;8.73;;;18.00;99.90;;;;;;4950426;28;20121;-87
2021/07/31 12:52:04;;;;;;;9.77;7.53;;;18.00;99.90;;;;;;4951049;28;20022;-86
2021/07/31 12:55:24;;;;;;;;;;;;;;;;;;;;;
2021/07/31 12:58:17;;;;;;;6.82;5.00;;;17.90;99.90;;;;;;4906701;28;20032;-86
2021/07/31 13:00:43;;;;;;;7.60;5.35;;;17.90;99.90;;;;;;4987829;28;20062;-85
2021/07/31 13:03:09;;;;;;;9.98;5.95;;;17.90;99.90;;;;;;5012925;28;20064;-85
2021/07/31 13:05:36;;;;;;;7.65;5.72;;;18.00;99.90;;;;;;5002473;28;20073;-86
2021/07/31 13:08:02;;;;;;;7.80;5.57;;;18.00;99.90;;;;;;4978807;28;20030;-87
2021/07/31 13:10:28;;;;;;;7.25;5.03;;;18.00;99.90;;;;;;4973715;28;20060;-87
2021/07/31 13:12:57;;;;;;;8.90;5.57;;;18.10;99.90;;;;;;5015400;28;20047;-90
2021/07/31 13:15:23;;;;;;;9.85;6.63;;;18.10;99.90;;;;;;4983014;28;20483;-90
2021/07/31 13:17:48;;;;;;;9.05;6.78;;;18.20;99.90;;;;;;4982290;28;20032;-89
2021/07/31 13:20:16;;;;;;;8.95;7.50;;;18.30;99.90;;;;;;4997548;28;20029;-90
2021/07/31 13:22:50;;;;;;;11.10;8.57;;;18.40;99.90;;;;;;4973952;28;20506;-90
2021/07/31 13:26:14;;;;;;;10.00;8.30;;;18.40;99.90;;;;;;4942382;29;20541;-89
2021/07/31 13:36:27;;;;;;;10.90;7.90;;;18.50;99.90;;;;;;5004171;28;20054;-90
2021/07/31 13:38:58;;;;;;;9.38;7.07;;;18.40;99.90;;;;;;4979842;28;20363;-94
2021/07/31 13:41:24;;;;;;;8.70;6.90;;;18.40;99.90;;;;;;4975038;28;20030;-91
2021/07/31 13:43:50;;;;;;;10.35;6.80;;;18.40;99.90;;;;;;4992547;28;20061;-90
2021/07/31 13:46:17;;;;;;;14.85;8.18;;;18.40;99.90;;;;;;4985899;28;20054;-89
2021/07/31 13:48:42;;;;;;;12.35;7.90;;;18.40;99.90;;;;;;4987171;28;20030;-94
2021/07/31 13:51:08;;;;;;;9.32;7.85;;;18.40;99.90;;;;;;5001064;28;20602;-93
2021/07/31 13:53:37;;;;;;;10.13;8.55;;;18.40;99.90;;;;;;4967051;28;20034;-93
2021/07/31 13:56:03;;;;;;;10.93;8.68;;;18.50;99.90;;;;;;4988346;28;20038;-92
2021/07/31 13:58:30;;;;;;;10.35;8.05;;;18.50;99.90;;;;;;5005622;28;20022;-94
2021/07/31 14:00:57;;;;;;;11.60;9.10;;;18.60;99.90;;;;;;4988210;28;20050;-94
2021/07/31 14:03:23;;;;;;;9.90;8.23;;;18.60;99.90;;;;;;4992285;28;20036;-94